Terminal Aerodrome Forecast
Issued by NWS Portland, ME

Current Version | Previous Version | Text Only | Print | Product List | Glossary On
Versions: 1 2 3 4 5 6 7 8 9 10 11 12 13 14 15 16 17 18 19 20 21
884 FTUS41 KGYX 250529 TAFCON TAF KCON 250529Z 2506/2606 VRB03KT 6SM BR SCT012 BKN025 TEMPO 2507/2511 3SM BR BKN012 FM251300 30007KT P6SM SCT025 SCT060 FM251700 30010G15KT P6SM SCT060 FM260000 30006KT P6SM SKC=

USA.gov is the U.S. government's official web portal to all federal, state and local government web resources and services.